Sherwood Park, Canada
Current Conditions -  °F | °C
As of 5:00 AM on Monday 26 Jan 2015 (Local Time) from CYXD Reporting Station
Clear Clear  
Wind Chill: 36°   Ceiling: Unl
Heat Index: 36°   Visibility: 9mi
Dew Point: 28°   Wind: 0mph
Humidity: 75%   Direction: NA
Pressure: 29.85"   Gusts: NA
Location:  53.52°N, 113.32°W
Report Text: CYXD 261200Z AUTO 00000KT 9SM CLR 02/M02 A2985 RMK SLP131
Loading
Personal Weather Stations






























Interactive Weather Map New forecast layout! Learn more

10-Day Weather Forecast

Advertisements
Track Severe Weather on mobile